Lewiston, California
Current Conditions -  °F | °C
As of 3:55 AM on Monday 22 Dec 2014 (Local Time) from KO54 Reporting Station
Overcast Overcast  
Wind Chill: 12°   Ceiling: 2800
Heat Index: 12°   Visibility: 10mi
Dew Point:   Wind: 6mph
Humidity: 77%   Direction: 200°SSW
Pressure: 30.26"   Gusts: NA
Location:  40.71°N, 122.81°W
Report Text: KO54 221155Z AUTO 20005KT 10SM OVC028 12/08 A3026 RMK AO1
Loading
Personal Weather Stations






























Interactive Weather Map New forecast layout! Learn more

10-Day Weather Forecast

Advertisements
Track Severe Weather on mobile